Time;durP1;ratioP1;P1;durP2;ratioP2;P2;SDS_P1;SDS_P2;PMS_P1;PMS_P2;Temp;Humidity;BMP_temperature;BMP_pressure;BME280_temperature;BME280_humidity;BME280_pressure;Samples;Min_cycle;Max_cycle;Signal;HPM_P1;HPM_P2
2023/01/17 00:01:43;;;;;;;23.10;13.05;;;;;;;10.19;74.46;100663.25;4940946;28;20041;-86
2023/01/17 00:09:52;;;;;;;20.90;12.45;;;;;;;10.10;74.42;100642.78;4958593;28;20125;-86
2023/01/17 00:12:26;;;;;;;20.85;12.35;;;;;;;10.13;74.60;100636.84;4957910;28;20050;-89
2023/01/17 00:14:54;;;;;;;21.00;12.73;;;;;;;10.08;74.21;100622.66;4956678;28;20037;-86
2023/01/17 00:17:24;;;;;;;22.00;12.70;;;;;;;10.06;74.36;100622.56;4956032;28;20427;-86
2023/01/17 01:35:15;;;;;;;18.50;11.75;;;;;;;10.26;74.08;100621.00;4960604;28;20473;-85
2023/01/17 01:37:41;;;;;;;17.55;10.80;;;;;;;10.22;73.92;100618.16;4952098;28;20032;-86
2023/01/17 01:40:10;;;;;;;18.67;11.18;;;;;;;9.99;74.36;100576.13;4962952;28;20116;-86
2023/01/17 01:42:36;;;;;;;20.05;11.98;;;;;;;10.23;74.49;100619.97;4952611;28;20073;-85
2023/01/17 01:45:11;;;;;;;19.58;11.27;;;;;;;10.05;74.25;100596.41;4951564;28;20086;-85
2023/01/17 01:47:39;;;;;;;19.00;11.32;;;;;;;9.88;74.16;100559.88;4960722;28;20030;-85
2023/01/17 01:50:07;;;;;;;18.33;11.48;;;;;;;10.21;74.10;100604.22;4951921;28;20137;-86
2023/01/17 01:52:35;;;;;;;19.73;11.75;;;;;;;9.95;74.27;100563.72;4962917;28;20074;-86
2023/01/17 01:55:09;;;;;;;18.17;11.35;;;;;;;10.15;74.42;100591.75;4951371;28;20023;-85
2023/01/17 01:57:39;;;;;;;18.52;11.10;;;;;;;10.21;74.17;100601.63;4966938;28;20035;-86
2023/01/17 02:00:15;;;;;;;18.50;11.50;;;;;;;10.13;74.24;100590.75;4967623;28;20038;-85
2023/01/17 02:02:41;;;;;;;19.95;11.60;;;;;;;9.98;74.06;100550.81;4962782;28;20035;-86
2023/01/17 02:05:08;;;;;;;17.98;11.50;;;;;;;10.02;74.45;100570.16;4935146;28;20031;-87
2023/01/17 02:07:44;;;;;;;18.45;11.38;;;;;;;10.18;74.13;100580.56;4958981;28;20032;-84
2023/01/17 02:10:11;;;;;;;19.88;10.90;;;;;;;10.04;74.07;100555.47;4948724;28;20051;-86
2023/01/17 02:12:37;;;;;;;18.83;11.75;;;;;;;9.83;74.24;100514.41;4955372;28;20042;-86
2023/01/17 02:15:05;;;;;;;19.02;11.85;;;;;;;10.01;74.28;100543.16;4961316;28;20106;-85
2023/01/17 02:17:58;;;;;;;19.65;11.77;;;;;;;10.30;74.21;100585.56;4955365;28;20039;-85
2023/01/17 02:20:42;;;;;;;16.75;11.10;;;;;;;10.31;74.34;100590.88;4961288;28;20085;-86
2023/01/17 02:23:27;;;;;;;18.90;11.63;;;;;;;10.24;74.21;100585.22;4957294;28;20031;-86
2023/01/17 02:26:30;;;;;;;20.40;12.27;;;;;;;10.29;74.11;100570.72;4955137;28;20023;-86
2023/01/17 02:29:09;;;;;;;18.52;11.65;;;;;;;10.28;74.18;100572.41;4949844;28;20551;-85
2023/01/17 02:31:55;;;;;;;18.50;11.38;;;;;;;10.30;74.23;100562.97;4950349;28;20102;-87
2023/01/17 02:34:30;;;;;;;20.23;11.98;;;;;;;10.29;74.38;100553.38;4949274;28;20123;-86
2023/01/17 02:37:00;;;;;;;18.67;12.05;;;;;;;10.30;74.64;100559.47;4954932;28;20094;-86
2023/01/17 02:39:35;;;;;;;19.63;11.73;;;;;;;10.31;74.05;100563.91;4966567;28;20171;-86
2023/01/17 02:42:04;;;;;;;17.95;11.55;;;;;;;10.31;74.37;100561.28;4964584;28;20028;-85
2023/01/17 02:44:39;;;;;;;18.42;11.32;;;;;;;10.23;74.32;100552.13;4945181;28;20110;-84
2023/01/17 02:47:17;;;;;;;16.75;10.20;;;;;;;10.32;74.30;100558.72;4969256;28;20031;-86
2023/01/17 02:49:43;;;;;;;18.75;11.32;;;;;;;10.31;74.41;100549.13;4955145;28;20058;-84
2023/01/17 02:52:27;;;;;;;17.05;10.52;;;;;;;9.99;74.15;100495.25;4944458;28;20489;-85
2023/01/17 02:55:15;;;;;;;19.15;11.60;;;;;;;10.31;74.20;100559.56;4954442;28;20082;-85
2023/01/17 02:58:05;;;;;;;17.63;10.80;;;;;;;10.34;74.30;100551.88;4946954;28;20121;-85
2023/01/17 03:00:31;;;;;;;16.40;10.13;;;;;;;10.33;74.28;100555.31;4951857;28;20431;-85
2023/01/17 03:03:13;;;;;;;19.33;11.40;;;;;;;10.23;74.34;100536.47;4955570;28;20114;-87
2023/01/17 03:05:43;;;;;;;18.73;11.73;;;;;;;10.16;74.49;100533.53;4965418;28;20047;-87
2023/01/17 03:08:10;;;;;;;18.98;11.25;;;;;;;10.10;74.62;100520.19;4970022;28;20054;-86
2023/01/17 03:10:35;;;;;;;18.55;11.32;;;;;;;10.29;74.22;100549.84;4965223;28;20047;-86
2023/01/17 03:13:02;;;;;;;16.48;10.68;;;;;;;10.26;74.28;100547.03;4940895;28;20034;-86
2023/01/17 03:15:27;;;;;;;17.83;10.80;;;;;;;10.34;74.12;100566.66;4957448;28;20769;-85
2023/01/17 03:17:57;;;;;;;16.33;10.27;;;;;;;10.25;74.16;100547.88;4956571;28;20119;-86
2023/01/17 03:20:23;;;;;;;16.17;10.18;;;;;;;10.23;74.22;100532.13;4966075;28;20125;-86
2023/01/17 03:22:48;;;;;;;18.00;10.80;;;;;;;10.22;74.21;100521.59;4961717;28;20110;-86
2023/01/17 03:25:15;;;;;;;16.40;10.43;;;;;;;10.36;74.11;100552.84;4974291;28;20037;-86
2023/01/17 03:27:41;;;;;;;15.90;10.30;;;;;;;10.15;74.34;100521.28;4973740;28;20038;-87
2023/01/17 03:30:07;;;;;;;16.60;11.15;;;;;;;9.95;74.57;100480.25;4974722;28;20030;-86
2023/01/17 03:32:36;;;;;;;16.13;10.15;;;;;;;9.92;74.42;100473.16;4957171;28;20424;-86
2023/01/17 03:35:02;;;;;;;16.95;10.05;;;;;;;9.83;74.20;100463.97;4940412;28;20130;-87
2023/01/17 03:37:28;;;;;;;15.20;9.70;;;;;;;10.13;73.98;100520.31;4956481;28;20113;-87
2023/01/17 03:39:53;;;;;;;15.63;10.00;;;;;;;10.05;74.04;100490.31;4974590;28;20033;-85
2023/01/17 03:42:19;;;;;;;16.37;10.17;;;;;;;10.24;74.42;100525.19;4956372;28;20023;-87
2023/01/17 03:44:44;;;;;;;15.65;9.93;;;;;;;10.15;74.28;100494.31;4956295;28;20298;-85
2023/01/17 03:47:10;;;;;;;14.87;9.80;;;;;;;10.18;74.27;100500.59;4957152;28;20089;-86
2023/01/17 03:49:39;;;;;;;14.88;9.60;;;;;;;10.38;73.95;100524.22;4957338;28;20357;-88
2023/01/17 03:52:06;;;;;;;15.35;10.05;;;;;;;10.05;74.15;100474.66;4953844;28;20043;-85
2023/01/17 03:54:44;;;;;;;15.45;10.32;;;;;;;10.16;74.32;100502.22;4955628;28;20034;-85
2023/01/17 03:57:10;;;;;;;13.65;9.20;;;;;;;9.78;74.15;100437.66;4956718;28;20022;-85
2023/01/17 03:59:35;;;;;;;15.70;10.00;;;;;;;10.25;74.54;100519.19;4973541;28;20403;-87
2023/01/17 04:02:04;;;;;;;13.82;9.55;;;;;;;10.13;74.26;100499.44;4945902;28;20027;-85
2023/01/17 04:04:29;;;;;;;15.20;9.93;;;;;;;10.05;74.26;100481.59;4973987;28;20109;-86
2023/01/17 04:06:55;;;;;;;15.13;10.02;;;;;;;9.99;73.95;100479.59;4969488;28;20105;-87
2023/01/17 04:09:20;;;;;;;15.70;9.77;;;;;;;10.16;73.95;100517.00;4955736;28;20031;-86
2023/01/17 04:11:49;;;;;;;15.00;9.60;;;;;;;10.17;74.02;100529.22;4973881;28;20068;-86
2023/01/17 04:14:16;;;;;;;14.18;9.20;;;;;;;10.39;74.04;100575.59;4957292;28;20273;-86
2023/01/17 04:16:49;;;;;;;13.75;9.18;;;;;;;10.28;74.04;100555.84;4956305;28;20530;-86
2023/01/17 04:19:14;;;;;;;14.63;9.60;;;;;;;10.37;74.26;100572.94;4943204;28;20481;-86
2023/01/17 04:21:40;;;;;;;14.52;9.63;;;;;;;10.05;74.23;100505.09;4966763;28;20031;-86
2023/01/17 04:24:06;;;;;;;13.48;9.35;;;;;;;10.29;74.09;100550.75;4978168;28;20600;-87
2023/01/17 04:26:32;;;;;;;14.57;9.68;;;;;;;10.10;74.22;100507.13;4971918;28;20425;-87
2023/01/17 04:29:00;;;;;;;13.75;9.02;;;;;;;10.19;73.82;100522.34;4978440;28;20043;-87
2023/01/17 04:31:26;;;;;;;15.35;9.85;;;;;;;9.87;73.96;100471.13;4959073;28;20118;-86
2023/01/17 04:33:51;;;;;;;13.88;9.60;;;;;;;10.16;74.03;100510.06;4966304;28;20469;-86
2023/01/17 04:36:17;;;;;;;14.75;9.15;;;;;;;9.96;74.33;100482.94;4973169;28;20039;-86
2023/01/17 04:38:43;;;;;;;13.02;9.07;;;;;;;9.99;73.70;100490.03;4955167;28;20119;-86
2023/01/17 04:41:08;;;;;;;14.60;9.15;;;;;;;10.18;74.09;100524.06;4956031;28;20416;-87
2023/01/17 04:43:40;;;;;;;12.82;9.25;;;;;;;10.19;74.12;100525.84;4934760;28;20521;-86
2023/01/17 04:46:08;;;;;;;14.15;9.00;;;;;;;9.97;73.94;100483.84;4936952;28;20401;-86
2023/01/17 04:48:34;;;;;;;13.50;9.20;;;;;;;10.07;73.96;100501.72;4967077;28;20035;-85
2023/01/17 04:51:00;;;;;;;12.63;8.45;;;;;;;10.40;73.93;100551.31;4972433;28;20081;-86
2023/01/17 04:53:32;;;;;;;13.60;9.20;;;;;;;10.04;73.99;100495.47;4972452;28;20035;-86
2023/01/17 04:55:58;;;;;;;13.35;8.70;;;;;;;10.08;73.59;100500.94;4946569;28;20472;-86
2023/01/17 04:58:56;;;;;;;;;;;;;;;;;;;;;
2023/01/17 05:01:24;;;;;;;13.82;9.32;;;;;;;10.37;74.17;100551.13;4957140;28;20023;-86
2023/01/17 05:03:50;;;;;;;13.07;8.85;;;;;;;10.25;73.96;100532.22;4955276;28;20114;-86
2023/01/17 05:06:15;;;;;;;13.67;8.70;;;;;;;10.12;74.23;100515.94;4955528;28;20027;-86
2023/01/17 05:09:14;;;;;;;13.73;9.32;;;;;;;9.83;73.85;100461.38;4955792;28;20281;-86
2023/01/17 05:11:45;;;;;;;13.63;8.32;;;;;;;10.25;73.92;100550.50;4951228;28;20051;-85
2023/01/17 05:14:39;;;;;;;14.20;8.82;;;;;;;10.36;73.88;100555.47;4962608;28;20027;-85
2023/01/17 05:17:32;;;;;;;14.00;8.98;;;;;;;10.36;74.25;100544.13;4971367;28;20041;-85
2023/01/17 05:19:58;;;;;;;12.73;8.70;;;;;;;10.37;73.79;100546.84;4972927;28;20467;-84
2023/01/17 05:22:23;;;;;;;14.57;8.75;;;;;;;10.34;74.15;100554.47;4971958;28;20109;-86
2023/01/17 05:24:49;;;;;;;13.02;9.27;;;;;;;10.35;74.47;100556.28;4955125;28;20393;-86
2023/01/17 05:27:17;;;;;;;12.27;8.75;;;;;;;10.37;74.02;100565.09;4937046;28;20035;-85
2023/01/17 05:29:43;;;;;;;13.30;9.02;;;;;;;9.89;74.07;100474.72;4955235;28;20038;-85
2023/01/17 05:32:09;;;;;;;12.00;8.27;;;;;;;10.03;73.99;100514.53;4955428;28;20475;-85
2023/01/17 05:34:56;;;;;;;13.32;9.05;;;;;;;10.38;74.01;100568.59;4980293;28;20027;-85
2023/01/17 05:37:48;;;;;;;13.15;8.60;;;;;;;10.37;73.83;100572.94;4954884;28;20084;-83
2023/01/17 05:40:39;;;;;;;12.48;8.68;;;;;;;10.36;74.00;100568.50;4972047;28;20594;-84
2023/01/17 05:43:08;;;;;;;14.05;9.00;;;;;;;9.75;73.89;100456.63;4953391;28;20125;-84
2023/01/17 05:46:18;;;;;;;12.75;8.43;;;;;;;10.35;73.91;100569.34;4954289;28;20035;-85
2023/01/17 05:49:00;;;;;;;12.85;8.57;;;;;;;10.04;73.96;100519.84;4971567;28;20393;-86
2023/01/17 05:51:32;;;;;;;14.27;8.57;;;;;;;10.26;74.13;100547.03;4971960;28;20038;-87
2023/01/17 05:53:57;;;;;;;12.80;8.85;;;;;;;10.06;74.20;100523.44;4971665;28;20019;-84
2023/01/17 05:56:24;;;;;;;12.63;8.43;;;;;;;10.37;74.06;100578.16;4968200;28;20044;-86
2023/01/17 05:58:50;;;;;;;13.23;8.88;;;;;;;10.39;74.14;100576.53;4939441;28;20057;-85
2023/01/17 06:01:19;;;;;;;13.23;8.55;;;;;;;10.15;74.03;100544.78;4971227;28;20081;-83
2023/01/17 06:03:47;;;;;;;13.40;8.30;;;;;;;10.38;73.84;100590.38;4955094;28;20062;-86
2023/01/17 06:06:51;;;;;;;12.93;8.63;;;;;;;10.41;74.20;100588.75;4939189;28;20031;-89
2023/01/17 06:09:42;;;;;;;11.90;8.40;;;;;;;10.38;73.97;100579.94;4971520;28;20034;-88
2023/01/17 06:12:10;;;;;;;13.93;9.02;;;;;;;10.32;74.28;100566.56;4951795;28;20032;-88
2023/01/17 06:14:36;;;;;;;13.27;8.82;;;;;;;10.25;74.34;100553.09;4934738;29;20023;-88
2023/01/17 06:17:01;;;;;;;12.88;8.45;;;;;;;10.35;74.47;100555.38;4952535;28;20042;-88
2023/01/17 06:19:30;;;;;;;11.88;8.07;;;;;;;10.38;73.94;100559.03;4951438;28;20036;-89
2023/01/17 06:21:56;;;;;;;13.00;8.70;;;;;;;10.30;74.13;100544.69;4935951;29;20031;-90
2023/01/17 06:24:29;;;;;;;13.18;9.00;;;;;;;10.13;73.81;100514.22;4965685;28;20042;-90
2023/01/17 06:27:15;;;;;;;11.95;8.18;;;;;;;10.14;74.24;100513.41;4936083;29;20019;-90
2023/01/17 06:29:41;;;;;;;13.13;9.13;;;;;;;10.09;74.29;100507.94;4958007;28;20135;-89
2023/01/17 06:32:27;;;;;;;14.05;8.98;;;;;;;10.35;74.15;100545.84;4952061;29;20130;-89
2023/01/17 06:34:52;;;;;;;11.10;7.82;;;;;;;10.25;73.98;100527.91;4945024;28;20119;-87
2023/01/17 06:37:27;;;;;;;12.77;8.43;;;;;;;10.36;74.36;100550.25;4947798;28;20098;-87
2023/01/17 06:39:53;;;;;;;13.10;8.65;;;;;;;10.10;74.27;100504.53;4959795;28;20036;-87
2023/01/17 06:42:28;;;;;;;11.50;8.27;;;;;;;10.37;74.26;100548.53;4950494;28;20027;-87
2023/01/17 06:45:19;;;;;;;11.43;7.80;;;;;;;10.39;73.94;100559.94;4957880;28;20515;-88
2023/01/17 06:47:50;;;;;;;12.98;8.45;;;;;;;10.11;73.88;100527.16;4967771;28;20126;-88
2023/01/17 06:50:16;;;;;;;13.02;8.45;;;;;;;10.29;74.00;100550.75;4967334;28;20126;-89
2023/01/17 06:52:42;;;;;;;12.80;8.38;;;;;;;10.39;73.83;100570.38;4967693;28;20166;-89
2023/01/17 06:55:20;;;;;;;13.10;8.68;;;;;;;10.22;73.96;100524.22;4935375;28;20039;-89
2023/01/17 06:57:47;;;;;;;12.75;8.38;;;;;;;10.39;74.12;100567.75;4956092;29;20031;-89
2023/01/17 07:00:43;;;;;;;12.23;8.15;;;;;;;10.38;74.13;100564.25;4955362;29;20031;-87
2023/01/17 07:03:20;;;;;;;12.77;8.35;;;;;;;10.38;73.85;100568.59;4971378;28;20385;-88
2023/01/17 07:06:01;;;;;;;11.65;7.90;;;;;;;10.38;74.27;100572.09;4954990;29;20034;-88
2023/01/17 07:08:27;;;;;;;12.23;8.60;;;;;;;10.31;73.85;100567.38;4936756;29;20571;-88
2023/01/17 07:11:06;;;;;;;11.63;8.30;;;;;;;10.32;74.12;100563.06;4945641;28;20047;-86
2023/01/17 07:13:38;;;;;;;11.90;8.15;;;;;;;10.29;74.11;100563.81;4954905;28;20489;-88
2023/01/17 07:16:05;;;;;;;12.30;8.23;;;;;;;10.21;73.88;100552.03;4954395;29;20098;-89
2023/01/17 07:18:31;;;;;;;12.07;8.15;;;;;;;10.16;74.20;100549.19;4942481;29;20106;-86
2023/01/17 07:20:58;;;;;;;11.80;7.93;;;;;;;9.96;74.35;100515.94;4944991;28;20603;-86
2023/01/17 07:23:24;;;;;;;12.10;8.32;;;;;;;10.24;73.87;100567.84;4952324;28;20028;-85
2023/01/17 07:25:57;;;;;;;11.68;8.07;;;;;;;10.12;73.85;100544.63;4931362;29;20032;-86
2023/01/17 07:29:05;;;;;;;13.93;7.93;;;;;;;10.39;74.06;100588.66;4918626;29;20024;-88
2023/01/17 07:32:11;;;;;;;11.95;8.38;;;;;;;10.37;73.87;100585.97;4955000;28;20045;-88
2023/01/17 07:35:56;;;;;;;12.88;8.30;;;;;;;10.37;74.01;100583.38;4932435;29;20617;-85
2023/01/17 07:38:48;;;;;;;11.13;7.80;;;;;;;10.10;73.98;100532.31;4914937;29;20524;-86
2023/01/17 07:41:49;;;;;;;12.45;8.00;;;;;;;10.27;74.18;100559.28;4894031;29;20578;-85
2023/01/17 07:44:19;;;;;;;12.20;8.13;;;;;;;9.94;74.31;100504.53;4900510;29;20048;-86
2023/01/17 07:46:59;;;;;;;11.57;8.32;;;;;;;10.37;74.06;100585.06;4883569;29;20043;-86
2023/01/17 07:49:25;;;;;;;11.05;7.95;;;;;;;10.08;74.26;100534.84;4933623;28;20114;-87
2023/01/17 07:52:00;;;;;;;12.48;8.32;;;;;;;10.33;74.17;100577.91;4928711;29;20032;-87
2023/01/17 07:54:26;;;;;;;11.68;7.82;;;;;;;10.02;73.96;100521.47;4932343;29;20040;-86
2023/01/17 07:56:52;;;;;;;11.48;7.68;;;;;;;9.94;73.93;100512.34;4944679;29;20413;-87
2023/01/17 07:59:17;;;;;;;12.20;8.52;;;;;;;9.99;74.28;100527.44;4932854;29;20531;-88
2023/01/17 08:01:43;;;;;;;13.45;8.32;;;;;;;10.28;74.27;100572.41;4943331;28;20032;-87
2023/01/17 08:04:10;;;;;;;13.07;8.32;;;;;;;10.09;74.17;100544.44;4937607;28;20497;-87
2023/01/17 08:06:36;;;;;;;11.65;7.82;;;;;;;9.88;74.15;100501.59;4940197;29;20034;-87
2023/01/17 08:09:02;;;;;;;11.07;7.45;;;;;;;10.31;74.13;100584.78;4939621;29;20032;-88
2023/01/17 08:11:28;;;;;;;11.40;8.23;;;;;;;10.17;73.85;100557.91;4960151;28;20047;-88
2023/01/17 08:13:58;;;;;;;11.70;8.02;;;;;;;10.10;74.16;100541.03;4969693;28;20527;-88
2023/01/17 08:16:27;;;;;;;12.23;7.82;;;;;;;10.16;74.05;100554.41;4952158;28;20023;-88
2023/01/17 08:18:54;;;;;;;11.30;7.68;;;;;;;10.35;73.94;100585.00;4937009;29;20090;-87
2023/01/17 08:21:19;;;;;;;14.45;9.43;;;;;;;10.26;74.10;100549.66;4953336;28;20038;-88
2023/01/17 08:23:50;;;;;;;12.10;8.57;;;;;;;10.40;74.03;100566.97;4968728;28;20390;-88
2023/01/17 08:26:20;;;;;;;12.05;8.45;;;;;;;10.29;74.11;100548.16;4954260;28;20058;-86
2023/01/17 08:28:59;;;;;;;14.45;8.93;;;;;;;10.33;74.35;100563.16;4967065;28;20080;-87
2023/01/17 08:31:26;;;;;;;13.10;9.05;;;;;;;10.35;74.11;100566.72;4951588;28;20130;-87
2023/01/17 08:33:52;;;;;;;15.15;9.60;;;;;;;10.29;74.29;100562.88;4948894;28;20039;-88
2023/01/17 08:36:18;;;;;;;17.08;9.63;;;;;;;10.08;74.66;100534.84;4968327;28;20046;-87
2023/01/17 08:38:43;;;;;;;14.30;9.63;;;;;;;10.08;74.28;100536.56;4951055;28;20390;-87
2023/01/17 08:41:09;;;;;;;15.80;8.95;;;;;;;10.29;74.53;100570.72;4963549;28;20046;-88
2023/01/17 08:43:35;;;;;;;13.23;8.85;;;;;;;10.33;74.76;100586.63;4948191;28;20565;-89
2023/01/17 08:46:01;;;;;;;13.88;9.05;;;;;;;10.09;74.70;100549.66;4946608;28;20441;-88
2023/01/17 08:48:45;;;;;;;16.27;9.65;;;;;;;10.26;74.96;100570.53;4951034;28;20035;-87
2023/01/17 08:51:11;;;;;;;16.75;9.35;;;;;;;10.15;74.82;100531.72;4966028;28;20036;-87
2023/01/17 08:53:36;;;;;;;15.35;8.88;;;;;;;10.15;74.71;100502.13;4947296;28;20674;-86
2023/01/17 08:56:04;;;;;;;13.35;9.13;;;;;;;10.21;74.85;100504.19;4950471;28;20587;-87
2023/01/17 08:58:30;;;;;;;14.13;9.20;;;;;;;10.20;74.66;100513.69;4941704;28;20157;-86
2023/01/17 09:01:04;;;;;;;13.55;9.00;;;;;;;10.34;74.98;100551.00;4948162;28;20465;-85
2023/01/17 09:03:30;;;;;;;14.43;9.15;;;;;;;10.32;75.00;100547.41;4950890;28;20031;-87
2023/01/17 09:06:08;;;;;;;15.30;9.30;;;;;;;10.22;75.06;100517.28;4931643;29;20614;-87
2023/01/17 09:08:34;;;;;;;14.85;8.82;;;;;;;10.15;74.87;100509.97;4962908;28;20031;-87
2023/01/17 09:11:03;;;;;;;15.90;9.07;;;;;;;10.34;75.24;100538.81;4950548;28;20052;-87
2023/01/17 09:13:29;;;;;;;14.00;8.80;;;;;;;10.33;75.29;100533.56;4949819;28;20035;-88
2023/01/17 09:15:56;;;;;;;14.73;8.55;;;;;;;10.29;74.98;100515.91;4952291;28;20030;-89
2023/01/17 09:18:25;;;;;;;15.75;9.35;;;;;;;10.16;75.33;100497.00;4957052;28;20512;-90
2023/01/17 09:20:54;;;;;;;12.90;8.55;;;;;;;10.39;75.26;100526.00;4946759;28;20027;-89
2023/01/17 09:23:23;;;;;;;13.93;9.00;;;;;;;10.09;75.26;100468.78;4950892;28;20094;-89
2023/01/17 09:25:57;;;;;;;12.90;8.30;;;;;;;10.26;74.90;100508.78;4958209;28;20027;-89
2023/01/17 09:28:24;;;;;;;12.07;8.38;;;;;;;10.31;74.58;100515.19;4948523;28;20057;-89
2023/01/17 09:30:50;;;;;;;13.77;8.68;;;;;;;10.02;74.93;100473.63;4951017;28;20481;-87
2023/01/17 09:33:17;;;;;;;14.23;8.43;;;;;;;10.33;74.95;100529.22;4939654;28;20031;-86
2023/01/17 09:35:43;;;;;;;14.25;8.90;;;;;;;10.06;74.32;100460.81;4958137;28;20026;-86
2023/01/17 09:38:09;;;;;;;;;;;;;;;10.42;74.83;100526.19;4965696;28;20094;-87
2023/01/17 09:40:36;;;;;;;11.13;7.68;;;;;;;10.24;74.30;100489.56;4947313;28;20375;-86
2023/01/17 09:43:04;;;;;;;11.95;8.00;;;;;;;10.45;74.34;100521.09;4964866;28;20103;-87
2023/01/17 09:45:32;;;;;;;12.50;7.85;;;;;;;10.46;74.28;100511.56;4949643;28;20247;-86
2023/01/17 09:47:59;;;;;;;13.80;8.40;;;;;;;10.28;75.00;100495.81;4951081;28;21435;-86
2023/01/17 09:50:40;;;;;;;13.85;8.07;;;;;;;10.40;75.19;100504.31;4951492;28;20050;-89
2023/01/17 09:53:12;;;;;;;12.32;7.93;;;;;;;10.36;75.03;100490.22;4961698;28;20063;-89
2023/01/17 09:56:12;;;;;;;13.90;8.75;;;;;;;10.44;74.80;100503.66;4930731;28;20501;-90
2023/01/17 09:58:53;;;;;;;13.73;8.05;;;;;;;10.44;74.94;100505.38;4934645;28;20409;-88
2023/01/17 10:01:33;;;;;;;14.60;8.75;;;;;;;10.42;75.27;100507.91;4956219;28;20042;-89
2023/01/17 10:04:30;;;;;;;12.25;8.07;;;;;;;10.35;75.06;100495.34;4951251;28;20024;-88
2023/01/17 10:07:32;;;;;;;12.47;8.27;;;;;;;10.28;74.77;100465.41;4947236;28;20035;-86
2023/01/17 10:10:43;;;;;;;14.18;8.50;;;;;;;10.53;74.48;100491.06;4966923;28;20567;-86
2023/01/17 10:13:24;;;;;;;13.35;8.13;;;;;;;10.54;74.70;100484.09;4968370;28;20118;-86
2023/01/17 10:15:49;;;;;;;14.57;8.02;;;;;;;10.50;75.02;100485.69;4951762;28;20038;-87
2023/01/17 10:18:52;;;;;;;13.02;8.43;;;;;;;10.48;75.09;100494.28;4970910;28;20425;-89
2023/01/17 10:21:36;;;;;;;12.88;8.02;;;;;;;10.50;74.95;100490.03;4972584;28;20038;-88
2023/01/17 10:24:03;;;;;;;13.35;8.13;;;;;;;10.45;75.29;100488.88;4972040;28;20089;-87
2023/01/17 10:26:31;;;;;;;13.82;8.50;;;;;;;10.46;74.98;100478.53;4972326;28;20019;-86
2023/01/17 10:29:03;;;;;;;12.35;8.07;;;;;;;10.46;75.46;100493.31;4970848;28;20023;-88
2023/01/17 10:31:41;;;;;;;12.90;8.50;;;;;;;10.32;75.61;100475.22;4956551;28;20037;-87
2023/01/17 10:34:44;;;;;;;13.18;8.40;;;;;;;10.44;75.28;100488.00;4958044;28;20050;-88
2023/01/17 10:37:22;;;;;;;13.68;8.52;;;;;;;10.45;75.52;100479.31;4960272;28;20042;-88
2023/01/17 10:39:49;;;;;;;14.77;9.18;;;;;;;10.47;75.18;100488.13;4954800;28;20033;-89
2023/01/17 10:42:49;;;;;;;14.77;8.07;;;;;;;10.31;75.38;100454.28;4936538;28;20030;-88
2023/01/17 10:45:27;;;;;;;16.25;8.93;;;;;;;10.40;75.41;100457.34;4957975;28;20019;-87
2023/01/17 10:48:08;;;;;;;13.95;9.15;;;;;;;10.43;75.55;100465.31;4966766;28;21749;-88
2023/01/17 10:50:45;;;;;;;13.15;8.68;;;;;;;10.35;75.32;100436.22;4958902;28;20031;-88
2023/01/17 10:53:35;;;;;;;14.88;8.70;;;;;;;10.52;75.57;100477.91;4973901;28;20080;-87
2023/01/17 10:56:01;;;;;;;15.50;8.43;;;;;;;10.47;75.65;100471.59;4973255;28;20030;-87
2023/01/17 10:58:26;;;;;;;;;;;;;;;10.54;75.77;100481.50;4957520;28;20496;-88
2023/01/17 11:01:00;;;;;;;13.70;8.43;;;;;;;10.52;75.79;100486.66;4941760;28;19925;-88
2023/01/17 11:03:27;;;;;;;12.73;7.55;;;;;;;10.49;75.48;100452.56;4938702;28;20532;-87
2023/01/17 11:06:22;;;;;;;14.35;8.05;;;;;;;10.66;75.13;100473.38;4948853;28;20042;-87
2023/01/17 11:08:55;;;;;;;14.80;8.10;;;;;;;10.70;76.16;100462.25;4973541;28;20033;-86
2023/01/17 11:11:30;;;;;;;18.88;8.57;;;;;;;10.64;76.42;100459.34;4956975;28;20055;-89
2023/01/17 11:13:59;;;;;;;14.50;8.20;;;;;;;10.67;75.77;100456.88;4968024;28;20022;-88
2023/01/17 11:16:31;;;;;;;22.38;7.97;;;;;;;11.51;77.67;100444.25;4958413;28;20042;-90
2023/01/17 11:19:14;;;;;;;20.17;7.22;;;;;;;12.09;79.45;100451.19;4954114;28;20482;-89
2023/01/17 11:21:53;;;;;;;25.42;7.70;;;;;;;12.26;78.82;100428.34;4971062;28;20038;-88
2023/01/17 11:24:57;;;;;;;29.90;7.50;;;;;;;12.36;79.28;100446.19;4955611;28;20030;-90
2023/01/17 11:27:30;;;;;;;18.30;6.60;;;;;;;12.27;79.10;100407.44;4942216;28;20035;-89
2023/01/17 11:30:16;;;;;;;28.77;7.35;;;;;;;11.97;80.23;100433.22;4956839;28;20027;-90
2023/01/17 11:33:04;;;;;;;24.30;7.70;;;;;;;11.58;79.35;100418.44;4959865;28;20035;-86
2023/01/17 11:35:33;;;;;;;21.50;6.65;;;;;;;11.58;78.35;100413.22;4954873;28;20062;-87
2023/01/17 11:38:06;;;;;;;22.83;7.43;;;;;;;11.32;78.17;100385.00;4954923;28;20038;-87
2023/01/17 11:40:38;;;;;;;16.10;7.03;;;;;;;11.31;79.04;100415.50;4972474;28;20503;-88
2023/01/17 11:43:10;;;;;;;18.67;6.57;;;;;;;11.22;79.23;100404.63;4955899;28;20046;-86
2023/01/17 11:45:40;;;;;;;22.42;7.18;;;;;;;11.07;79.09;100385.63;4971769;28;20048;-86
2023/01/17 11:48:11;;;;;;;18.48;6.72;;;;;;;11.21;78.99;100403.72;4949945;28;20081;-85
2023/01/17 11:50:53;;;;;;;20.85;7.10;;;;;;;11.06;79.39;100400.41;4967809;28;20046;-86
2023/01/17 11:53:24;;;;;;;17.27;6.15;;;;;;;10.99;79.07;100385.28;4954879;28;20026;-86
2023/01/17 11:55:58;;;;;;;15.73;6.43;;;;;;;10.98;79.29;100399.16;4965303;28;20043;-86
2023/01/17 11:58:25;;;;;;;18.90;5.95;;;;;;;11.04;78.90;100396.81;4950157;28;20031;-85
2023/01/17 12:00:58;;;;;;;18.65;6.93;;;;;;;11.16;78.46;100386.06;4953874;28;20110;-87
2023/01/17 12:03:37;;;;;;;15.95;7.25;;;;;;;11.06;78.43;100376.91;4955698;28;20038;-88
2023/01/17 12:06:33;;;;;;;15.27;5.82;;;;;;;11.07;79.25;100376.09;4953280;28;20026;-86
2023/01/17 12:09:21;;;;;;;16.08;6.75;;;;;;;11.09;79.01;100379.66;4974928;28;20031;-86
2023/01/17 12:14:42;;;;;;;15.15;6.68;;;;;;;11.11;78.02;100364.94;4942918;28;20690;-85
2023/01/17 12:17:22;;;;;;;17.80;6.05;;;;;;;11.18;78.53;100385.28;4968826;28;20049;-86
2023/01/17 12:20:03;;;;;;;13.50;5.88;;;;;;;11.27;77.76;100386.53;4955778;28;20109;-88
2023/01/17 12:22:50;;;;;;;13.55;5.40;;;;;;;11.16;78.23;100388.66;4979261;28;20066;-86
2023/01/17 12:25:31;;;;;;;19.08;5.97;;;;;;;11.33;77.45;100399.88;4965649;28;20138;-85
2023/01/17 12:28:15;;;;;;;17.95;5.72;;;;;;;11.33;77.38;100403.38;4964960;28;20027;-86
2023/01/17 12:31:05;;;;;;;19.48;6.35;;;;;;;11.33;77.47;100411.22;4971841;28;20121;-86
2023/01/17 12:34:06;;;;;;;18.13;5.85;;;;;;;11.34;77.20;100393.81;4960168;28;20023;-86
2023/01/17 12:36:41;;;;;;;16.83;6.10;;;;;;;11.26;77.33;100396.09;4970505;28;20030;-87
2023/01/17 12:39:13;;;;;;;13.98;5.85;;;;;;;11.08;76.79;100354.34;4955621;28;20034;-87
2023/01/17 12:41:58;;;;;;;12.70;5.47;;;;;;;11.15;76.84;100369.50;4972180;28;20547;-89
2023/01/17 12:44:41;;;;;;;17.73;6.03;;;;;;;11.10;76.82;100342.25;4951571;28;20035;-87
2023/01/17 12:47:08;;;;;;;15.88;5.65;;;;;;;11.36;77.12;100400.91;4962855;28;20054;-87
2023/01/17 12:49:43;;;;;;;16.10;5.53;;;;;;;11.31;77.42;100398.94;4954708;28;20173;-86
2023/01/17 12:52:28;;;;;;;15.73;5.50;;;;;;;11.15;76.89;100359.03;4971965;28;20085;-86
2023/01/17 12:55:01;;;;;;;15.30;5.90;;;;;;;11.31;77.10;100385.84;4947918;28;20031;-87
2023/01/17 12:57:43;;;;;;;14.48;5.93;;;;;;;11.29;77.45;100414.53;4963994;28;20023;-87
2023/01/17 13:00:18;;;;;;;18.67;6.15;;;;;;;10.89;77.24;100342.16;4947770;28;20031;-85
2023/01/17 13:02:54;;;;;;;14.82;5.45;;;;;;;11.39;77.18;100426.31;4961054;28;20084;-86
2023/01/17 13:05:28;;;;;;;16.50;5.82;;;;;;;11.34;77.11;100422.56;4954264;28;20030;-87
2023/01/17 13:08:12;;;;;;;13.55;5.40;;;;;;;11.38;77.19;100421.88;4953577;28;20030;-87
2023/01/17 13:11:06;;;;;;;14.73;5.60;;;;;;;11.15;78.15;100411.31;4970812;28;20042;-86
2023/01/17 13:13:33;;;;;;;14.27;5.00;;;;;;;11.04;78.50;100390.72;4951040;28;20035;-88